Time;durP1;ratioP1;P1;durP2;ratioP2;P2;SDS_P1;SDS_P2;PMS_P1;PMS_P2;Temp;Humidity;BMP_temperature;BMP_pressure;BME280_temperature;BME280_humidity;BME280_pressure;Samples;Min_cycle;Max_cycle;Signal;HPM_P1;HPM_P2
2023/08/10 00:00:54;;;;;;;5.45;3.10;;;;;;;17.23;62.56;101998.63;5013562;28;20473;-72
2023/08/10 00:03:19;;;;;;;6.85;3.00;;;;;;;17.21;62.74;102000.00;5014340;28;20036;-72
2023/08/10 00:05:44;;;;;;;6.95;3.45;;;;;;;17.26;62.44;101991.63;5012958;28;20068;-73
2023/08/10 00:08:10;;;;;;;6.43;3.30;;;;;;;17.32;62.39;101996.16;5013623;28;20041;-72
2023/08/10 00:10:36;;;;;;;6.38;2.90;;;;;;;17.25;63.01;102004.81;5014840;28;20030;-72
2023/08/10 00:13:02;;;;;;;5.55;3.40;;;;;;;17.29;62.90;102013.50;5011015;28;20037;-73
2023/08/10 00:15:27;;;;;;;4.43;3.00;;;;;;;17.23;63.20;101997.78;5012570;28;20030;-73
2023/08/10 00:17:53;;;;;;;9.30;3.25;;;;;;;17.28;63.05;102001.44;5014619;28;20540;-73
2023/08/10 00:20:18;;;;;;;7.68;3.40;;;;;;;17.28;63.37;102000.59;5013054;28;20147;-72
2023/08/10 00:22:44;;;;;;;4.07;2.92;;;;;;;17.24;63.39;102000.31;5014004;28;20060;-72
2023/08/10 00:25:09;;;;;;;7.63;3.45;;;;;;;17.27;63.28;102001.72;5013114;28;20057;-72
2023/08/10 00:27:38;;;;;;;3.90;3.35;;;;;;;17.28;63.21;101995.84;5012345;28;20038;-72
2023/08/10 00:30:04;;;;;;;10.07;3.80;;;;;;;17.27;63.20;101999.75;5010876;28;20045;-72
2023/08/10 00:32:29;;;;;;;7.18;3.30;;;;;;;17.28;63.33;102001.44;5001714;28;20029;-72
2023/08/10 00:34:55;;;;;;;6.35;3.10;;;;;;;17.28;63.36;102001.44;5013384;28;20080;-72
2023/08/10 00:37:20;;;;;;;6.97;3.55;;;;;;;17.20;63.54;102013.19;5012273;28;20064;-72
2023/08/10 00:39:45;;;;;;;5.75;3.60;;;;;;;17.19;63.58;102011.50;5013341;28;20543;-72
2023/08/10 00:42:11;;;;;;;4.93;3.20;;;;;;;17.18;63.57;102009.81;5014311;28;20076;-72
2023/08/10 00:44:36;;;;;;;7.65;3.53;;;;;;;17.21;63.82;102005.59;5011424;28;20414;-72
2023/08/10 00:47:01;;;;;;;7.63;3.90;;;;;;;17.21;63.80;102000.84;5011496;28;20046;-73
2023/08/10 00:49:27;;;;;;;5.15;3.70;;;;;;;17.20;64.00;101999.16;5013472;28;20033;-72
2023/08/10 00:51:52;;;;;;;5.43;3.60;;;;;;;17.15;64.20;101996.31;5009621;28;20416;-72
2023/08/10 00:54:18;;;;;;;5.55;3.42;;;;;;;17.14;64.17;101997.44;5011500;28;20083;-72
2023/08/10 00:56:43;;;;;;;6.55;3.30;;;;;;;17.20;63.90;101993.53;5013898;28;20058;-72
2023/08/10 00:59:09;;;;;;;8.25;3.88;;;;;;;17.19;64.26;101986.25;5013780;28;20026;-71
2023/08/10 01:01:35;;;;;;;5.95;3.15;;;;;;;17.12;64.50;101991.25;5011490;28;20120;-72
2023/08/10 01:04:00;;;;;;;5.18;3.70;;;;;;;17.13;64.53;101992.91;5010615;28;20516;-71
2023/08/10 01:06:44;;;;;;;4.75;3.25;;;;;;;17.19;64.28;101994.66;5013207;28;20512;-72
2023/08/10 01:09:38;;;;;;;8.32;3.85;;;;;;;17.22;64.13;102005.34;5003543;28;20061;-72
2023/08/10 01:12:19;;;;;;;5.55;3.75;;;;;;;17.17;64.38;102005.28;5011165;28;20495;-72
2023/08/10 01:15:13;;;;;;;6.07;3.20;;;;;;;17.21;64.42;102000.00;5012924;28;20033;-72
2023/08/10 01:17:42;;;;;;;5.60;3.70;;;;;;;17.14;64.70;102001.09;5013357;28;20493;-72
2023/08/10 01:20:09;;;;;;;4.78;3.60;;;;;;;17.11;64.66;101997.97;5013288;28;20049;-72
2023/08/10 01:23:01;;;;;;;6.03;3.33;;;;;;;17.18;64.48;102010.66;5012079;28;20354;-72
2023/08/10 01:25:27;;;;;;;5.47;3.75;;;;;;;17.13;64.89;102005.03;5008979;28;20049;-72
2023/08/10 01:27:54;;;;;;;7.72;4.18;;;;;;;17.10;64.80;102001.91;5010693;28;20054;-72
2023/08/10 01:30:20;;;;;;;8.38;3.45;;;;;;;17.09;65.19;102008.59;5011729;28;20034;-72
2023/08/10 01:32:45;;;;;;;6.65;3.70;;;;;;;17.09;64.96;102000.19;5013011;28;20084;-72
2023/08/10 01:35:10;;;;;;;6.82;3.55;;;;;;;17.03;65.17;102004.94;5012254;28;20437;-72
2023/08/10 01:37:37;;;;;;;6.30;3.67;;;;;;;17.02;65.29;102008.00;5012106;28;20164;-72
2023/08/10 01:40:11;;;;;;;4.55;3.50;;;;;;;16.98;65.42;102006.81;5011955;28;20872;-72
2023/08/10 01:42:37;;;;;;;8.20;3.67;;;;;;;16.97;65.25;102000.38;5008036;28;20033;-72
2023/08/10 01:45:04;;;;;;;8.10;4.07;;;;;;;17.01;65.29;102009.94;5011128;28;20028;-71
2023/08/10 01:47:50;;;;;;;6.15;3.70;;;;;;;16.96;65.46;102009.91;5013442;28;20049;-72
2023/08/10 01:50:18;;;;;;;5.00;3.53;;;;;;;16.89;65.82;102004.53;5010133;28;20037;-72
2023/08/10 01:53:02;;;;;;;4.53;3.55;;;;;;;16.95;65.50;102004.59;5006471;28;20096;-72
2023/08/10 01:55:28;;;;;;;6.47;4.03;;;;;;;16.87;65.99;102006.75;5012828;28;20469;-72
2023/08/10 01:57:54;;;;;;;6.35;3.83;;;;;;;16.85;66.02;102011.78;5011767;28;20038;-72
2023/08/10 02:00:19;;;;;;;4.10;3.70;;;;;;;16.79;66.15;102010.06;5012043;28;20088;-71
2023/08/10 02:02:45;;;;;;;5.60;3.95;;;;;;;16.70;66.05;102006.00;5011825;28;20493;-71
2023/08/10 02:05:12;;;;;;;4.10;3.70;;;;;;;16.73;66.11;102005.50;5009726;28;20359;-72
2023/08/10 02:07:37;;;;;;;4.18;3.38;;;;;;;16.68;66.25;102005.44;5011169;28;20038;-72
2023/08/10 02:10:03;;;;;;;7.07;4.20;;;;;;;16.66;66.29;102011.31;5010447;28;20530;-72
2023/08/10 02:12:28;;;;;;;5.95;3.63;;;;;;;16.62;66.08;102000.88;5011657;28;20029;-72
2023/08/10 02:14:58;;;;;;;6.13;4.10;;;;;;;16.63;66.10;102000.63;5010810;28;20041;-72
2023/08/10 02:17:23;;;;;;;4.80;3.45;;;;;;;16.60;66.28;102012.38;5012229;28;20030;-72
2023/08/10 02:19:49;;;;;;;4.05;3.53;;;;;;;16.57;66.26;102006.44;5003110;28;20021;-72
2023/08/10 02:22:14;;;;;;;4.53;3.50;;;;;;;16.52;66.52;102006.41;5012802;28;20381;-72
2023/08/10 02:24:39;;;;;;;4.13;3.72;;;;;;;16.50;66.31;102011.41;5011977;28;20061;-71
2023/08/10 02:27:05;;;;;;;4.45;3.60;;;;;;;16.51;66.32;102007.53;5000837;28;20030;-71
2023/08/10 02:29:30;;;;;;;4.82;3.72;;;;;;;16.53;66.19;102011.72;4994969;28;20133;-71
2023/08/10 02:31:55;;;;;;;5.10;3.83;;;;;;;16.49;66.51;102009.72;5010933;28;20041;-71
2023/08/10 02:34:21;;;;;;;5.20;3.90;;;;;;;16.38;66.76;102009.59;5011176;28;20025;-71
2023/08/10 02:36:46;;;;;;;4.15;3.42;;;;;;;16.42;66.62;102018.34;5011097;28;20048;-71
2023/08/10 02:39:12;;;;;;;8.15;4.03;;;;;;;16.37;66.52;102013.53;5011442;28;20026;-71
2023/08/10 02:41:37;;;;;;;4.93;4.00;;;;;;;16.34;66.81;102008.44;5011126;28;20083;-71
2023/08/10 02:44:02;;;;;;;6.22;3.85;;;;;;;16.38;66.59;102015.22;5010164;28;20058;-71
2023/08/10 02:46:28;;;;;;;9.52;3.97;;;;;;;16.35;66.57;102015.75;5008580;28;20037;-71
2023/08/10 02:48:54;;;;;;;5.70;3.88;;;;;;;16.34;66.83;102014.06;4994341;28;20117;-71
2023/08/10 02:51:19;;;;;;;5.65;4.00;;;;;;;16.28;67.23;102011.47;5007460;28;20084;-72
2023/08/10 02:53:45;;;;;;;5.28;3.92;;;;;;;16.28;67.27;102015.13;5010001;28;20118;-71
2023/08/10 02:56:10;;;;;;;5.95;3.97;;;;;;;16.29;66.93;102015.97;5012093;28;20042;-71
2023/08/10 02:58:36;;;;;;;6.18;4.10;;;;;;;16.26;66.88;102025.72;5011971;28;20033;-71
2023/08/10 03:01:06;;;;;;;5.88;4.50;;;;;;;16.28;66.71;102023.53;5010217;28;20068;-71
2023/08/10 03:03:32;;;;;;;6.45;4.40;;;;;;;16.24;66.80;102022.34;5008323;28;20026;-71
2023/08/10 03:05:57;;;;;;;6.70;4.72;;;;;;;16.25;66.93;102026.84;5008521;28;20370;-71
2023/08/10 03:08:23;;;;;;;4.97;3.90;;;;;;;16.26;66.86;102022.09;5009211;28;20053;-71
2023/08/10 03:10:50;;;;;;;8.00;4.30;;;;;;;16.20;66.82;102029.59;5006835;28;20119;-71
2023/08/10 03:13:15;;;;;;;7.32;4.00;;;;;;;16.19;66.64;102030.69;5012013;28;20034;-71
2023/08/10 03:15:41;;;;;;;6.10;3.90;;;;;;;16.09;67.33;102037.03;5010648;28;20033;-71
2023/08/10 03:18:06;;;;;;;4.72;4.03;;;;;;;16.13;66.83;102028.94;5010453;28;20042;-72
2023/08/10 03:20:31;;;;;;;6.95;4.53;;;;;;;16.10;66.96;102041.50;5009772;28;20038;-71
2023/08/10 03:22:57;;;;;;;5.43;3.90;;;;;;;16.07;67.24;102036.47;5003199;28;20060;-71
2023/08/10 03:25:22;;;;;;;5.88;4.25;;;;;;;16.03;67.29;102040.00;5010325;28;20033;-71
2023/08/10 03:27:48;;;;;;;6.85;3.80;;;;;;;16.06;67.53;102037.53;5014688;28;20045;-70
2023/08/10 03:30:13;;;;;;;6.10;4.13;;;;;;;16.08;67.12;102034.50;5014762;28;20030;-70
2023/08/10 03:32:39;;;;;;;5.25;4.10;;;;;;;16.08;67.18;102026.94;5014918;28;20038;-71
2023/08/10 03:35:05;;;;;;;6.28;4.13;;;;;;;16.00;67.47;102024.59;5014647;28;20026;-71
2023/08/10 03:37:30;;;;;;;4.72;4.05;;;;;;;16.02;67.72;102024.31;5011632;28;20030;-71
2023/08/10 03:39:56;;;;;;;6.93;4.65;;;;;;;16.01;67.97;102023.47;5014451;28;20026;-71
2023/08/10 03:42:21;;;;;;;7.38;4.10;;;;;;;16.01;68.10;102026.28;5014797;28;20057;-71
2023/08/10 03:44:46;;;;;;;6.15;4.65;;;;;;;15.96;68.18;102020.63;5014314;28;20033;-71
2023/08/10 03:47:12;;;;;;;7.75;4.78;;;;;;;15.95;68.27;102032.91;4999101;28;20497;-72
2023/08/10 03:49:37;;;;;;;5.75;4.88;;;;;;;15.97;68.40;102025.13;4999807;28;20655;-71
2023/08/10 03:52:02;;;;;;;5.95;5.03;;;;;;;15.98;68.38;102031.56;5015234;28;20045;-72
2023/08/10 03:54:29;;;;;;;8.70;4.90;;;;;;;15.93;68.46;102030.38;5010545;28;20117;-72
2023/08/10 03:56:55;;;;;;;5.78;4.68;;;;;;;15.94;68.61;102031.22;5009435;28;20469;-72
2023/08/10 03:59:20;;;;;;;5.55;4.38;;;;;;;15.90;68.33;102024.47;5013908;28;20030;-72
2023/08/10 04:01:45;;;;;;;4.80;3.70;;;;;;;15.91;67.83;102034.53;5014260;28;20034;-71
2023/08/10 04:04:10;;;;;;;6.28;3.88;;;;;;;15.90;67.98;102025.31;5014578;28;20080;-72
2023/08/10 04:06:36;;;;;;;5.93;4.10;;;;;;;15.91;67.84;102026.97;5014714;28;20034;-71
2023/08/10 04:09:02;;;;;;;7.05;3.85;;;;;;;15.88;68.02;102032.28;5014403;28;20398;-71
2023/08/10 04:11:27;;;;;;;7.80;4.85;;;;;;;15.79;68.17;102037.47;5013994;28;20026;-71
2023/08/10 04:13:52;;;;;;;5.53;4.18;;;;;;;15.78;68.13;102041.38;5010140;28;20025;-71
2023/08/10 04:16:18;;;;;;;8.52;4.22;;;;;;;15.78;67.97;102048.94;5013226;28;20034;-71
2023/08/10 04:18:43;;;;;;;5.18;4.00;;;;;;;15.77;67.82;102042.50;5013462;28;20077;-71
2023/08/10 04:21:09;;;;;;;5.90;4.35;;;;;;;15.73;68.07;102046.91;5014000;28;20234;-71
2023/08/10 04:23:34;;;;;;;6.30;4.13;;;;;;;15.71;68.15;102049.97;5014829;28;20460;-71
2023/08/10 04:25:59;;;;;;;6.60;4.05;;;;;;;15.68;68.22;102041.25;4998507;28;20037;-71
2023/08/10 04:28:25;;;;;;;5.75;4.38;;;;;;;15.68;68.37;102042.09;5013637;28;20057;-71
2023/08/10 04:30:50;;;;;;;5.07;4.32;;;;;;;15.70;68.23;102047.44;5013278;28;20041;-71
2023/08/10 04:33:16;;;;;;;7.63;4.35;;;;;;;15.69;68.21;102051.34;5013472;28;20037;-71
2023/08/10 04:35:41;;;;;;;5.22;4.28;;;;;;;15.71;68.19;102049.13;5011545;28;20021;-71
2023/08/10 04:38:06;;;;;;;6.82;4.18;;;;;;;15.70;68.28;102048.28;5013272;28;20111;-72
2023/08/10 04:40:31;;;;;;;6.75;4.65;;;;;;;15.67;68.57;102059.97;5012762;28;20120;-71
2023/08/10 04:43:00;;;;;;;9.02;4.82;;;;;;;15.63;68.63;102055.97;5014126;28;20156;-72
2023/08/10 04:45:25;;;;;;;6.00;4.80;;;;;;;15.66;68.60;102057.44;5006786;28;20485;-71
2023/08/10 04:47:51;;;;;;;8.38;5.70;;;;;;;15.65;68.58;102066.97;4993712;28;20030;-71
2023/08/10 04:50:16;;;;;;;10.35;5.85;;;;;;;15.62;68.53;102075.81;5006676;28;20049;-71
2023/08/10 04:52:42;;;;;;;7.85;5.32;;;;;;;15.62;68.79;102067.44;5002994;28;20022;-71
2023/08/10 04:55:09;;;;;;;6.88;5.63;;;;;;;15.65;68.93;102067.81;5015011;28;20060;-70
2023/08/10 04:57:35;;;;;;;7.28;5.35;;;;;;;15.65;69.42;102069.75;5013275;28;20033;-71
2023/08/10 05:00:02;;;;;;;7.22;5.28;;;;;;;15.66;69.56;102069.50;5013251;28;20819;-70
2023/08/10 05:02:28;;;;;;;6.40;5.35;;;;;;;15.67;69.96;102064.72;5006734;28;20026;-71
2023/08/10 05:04:55;;;;;;;8.75;5.75;;;;;;;15.70;70.18;102070.66;5012922;28;20116;-71
2023/08/10 05:07:20;;;;;;;7.97;5.70;;;;;;;15.69;70.13;102074.56;5012343;28;20029;-71
2023/08/10 05:09:45;;;;;;;7.65;6.00;;;;;;;15.70;70.18;102067.03;4996992;28;20034;-71
2023/08/10 05:12:11;;;;;;;10.52;6.38;;;;;;;15.72;70.21;102070.44;4994396;28;20026;-71
2023/08/10 05:14:36;;;;;;;9.23;5.82;;;;;;;15.73;70.12;102063.72;4993149;28;20551;-71
2023/08/10 05:17:02;;;;;;;8.43;6.07;;;;;;;15.72;69.96;102064.81;5008284;28;20495;-71
2023/08/10 05:19:27;;;;;;;8.00;6.47;;;;;;;15.76;70.11;102071.59;5008645;28;20032;-71
2023/08/10 05:21:53;;;;;;;9.48;6.53;;;;;;;15.79;70.24;102067.41;5012811;28;20030;-71
2023/08/10 05:24:18;;;;;;;7.88;5.90;;;;;;;15.81;70.17;102065.22;5010291;28;20026;-71
2023/08/10 05:26:43;;;;;;;10.60;6.68;;;;;;;15.82;69.89;102069.72;5010736;28;20061;-72
2023/08/10 05:29:09;;;;;;;7.78;6.13;;;;;;;15.82;70.06;102070.56;5011714;28;20500;-71
2023/08/10 05:31:34;;;;;;;9.10;6.47;;;;;;;15.82;70.18;102066.91;5012637;28;20354;-72
2023/08/10 05:33:59;;;;;;;10.35;6.60;;;;;;;15.82;70.30;102073.34;5013326;28;20041;-71
2023/08/10 05:36:24;;;;;;;11.65;6.53;;;;;;;15.82;70.45;102066.91;5011610;28;20034;-71
2023/08/10 05:38:50;;;;;;;6.47;5.85;;;;;;;15.88;70.47;102060.28;5011215;28;20499;-71
2023/08/10 05:41:15;;;;;;;10.82;6.47;;;;;;;15.85;70.78;102066.41;5013391;28;20030;-70
2023/08/10 05:43:40;;;;;;;10.30;6.97;;;;;;;15.86;70.93;102062.47;4995113;28;20049;-71
2023/08/10 05:46:06;;;;;;;9.13;6.47;;;;;;;15.91;71.24;102059.75;5005227;28;20412;-70
2023/08/10 05:48:32;;;;;;;12.85;7.40;;;;;;;15.85;71.12;102050.44;5011572;28;20064;-71
2023/08/10 05:50:57;;;;;;;9.90;7.22;;;;;;;15.89;71.00;102064.78;5005392;28;20030;-70
2023/08/10 05:53:23;;;;;;;8.55;7.47;;;;;;;15.85;71.21;102060.81;4998608;28;20465;-71
2023/08/10 05:55:49;;;;;;;13.40;7.60;;;;;;;15.91;71.27;102066.19;5011907;28;20037;-70
2023/08/10 05:58:14;;;;;;;10.55;7.63;;;;;;;15.90;71.54;102066.47;5012084;28;20030;-71
2023/08/10 06:00:40;;;;;;;12.35;8.07;;;;;;;15.93;71.07;102063.16;5011171;28;20026;-70
2023/08/10 06:03:05;;;;;;;13.52;8.20;;;;;;;15.98;71.13;102059.56;5008838;28;20033;-72
2023/08/10 06:05:31;;;;;;;12.55;8.77;;;;;;;15.97;71.51;102069.06;5002441;28;20473;-73
2023/08/10 06:07:57;;;;;;;13.57;8.73;;;;;;;16.02;71.36;102060.72;4995209;28;20109;-73
2023/08/10 06:10:23;;;;;;;11.35;8.20;;;;;;;16.09;71.14;102067.84;4997151;28;20140;-72
2023/08/10 06:12:49;;;;;;;14.23;9.10;;;;;;;16.09;71.32;102067.00;5009882;28;20072;-72
2023/08/10 06:15:15;;;;;;;10.85;7.68;;;;;;;16.20;70.69;102068.81;5011449;28;20499;-73
2023/08/10 06:17:41;;;;;;;12.52;8.23;;;;;;;16.25;70.70;102060.47;5010653;28;20014;-72
2023/08/10 06:20:13;;;;;;;9.52;7.28;;;;;;;16.30;70.77;102052.13;5009650;28;20026;-73
2023/08/10 06:22:39;;;;;;;13.27;7.35;;;;;;;16.36;70.83;102058.63;5012038;28;20080;-73
2023/08/10 06:25:05;;;;;;;10.70;7.10;;;;;;;16.36;70.89;102067.88;4996665;28;20044;-73
2023/08/10 06:27:31;;;;;;;10.35;7.10;;;;;;;16.36;70.43;102065.09;5010798;28;20050;-72
2023/08/10 06:29:57;;;;;;;10.90;7.05;;;;;;;16.37;70.60;102063.97;5011951;28;20034;-70
2023/08/10 06:32:22;;;;;;;8.45;7.22;;;;;;;16.43;71.24;102071.34;5010453;28;20472;-71
2023/08/10 06:34:47;;;;;;;9.75;6.78;;;;;;;16.54;70.86;102066.66;5011368;28;20084;-71
2023/08/10 06:37:16;;;;;;;8.18;6.05;;;;;;;16.68;70.63;102070.75;5011841;28;20022;-72
2023/08/10 06:39:41;;;;;;;12.23;7.03;;;;;;;16.74;69.86;102068.03;5000818;28;20026;-69
2023/08/10 06:42:07;;;;;;;9.18;6.30;;;;;;;16.85;69.24;102070.66;5009974;28;20088;-70
2023/08/10 06:44:32;;;;;;;7.38;5.15;;;;;;;16.98;68.86;102057.31;5011478;28;20033;-70
2023/08/10 06:46:57;;;;;;;7.75;5.40;;;;;;;17.09;68.63;102050.69;5004372;28;20018;-70
2023/08/10 06:49:23;;;;;;;8.40;5.20;;;;;;;17.18;68.33;102058.34;5002745;28;20149;-68
2023/08/10 06:51:50;;;;;;;9.02;5.40;;;;;;;17.28;68.25;102054.75;4994575;28;20099;-70
2023/08/10 06:54:15;;;;;;;9.13;5.50;;;;;;;17.34;67.72;102048.09;5005685;28;20101;-68
2023/08/10 06:56:40;;;;;;;7.15;4.43;;;;;;;17.45;67.41;102049.00;5006304;28;20548;-69
2023/08/10 06:59:07;;;;;;;7.72;5.22;;;;;;;17.56;67.10;102053.56;5007019;28;20049;-68
2023/08/10 07:01:32;;;;;;;6.90;4.38;;;;;;;17.65;66.17;102049.13;5007776;28;20032;-68
2023/08/10 07:03:58;;;;;;;8.73;4.78;;;;;;;17.76;66.09;102046.41;5010342;28;20381;-67
2023/08/10 07:06:23;;;;;;;9.18;4.35;;;;;;;17.85;65.00;102045.63;5005477;28;20109;-66
2023/08/10 07:08:52;;;;;;;8.18;4.40;;;;;;;17.93;63.99;102049.03;5012470;28;20354;-66
2023/08/10 07:11:17;;;;;;;8.73;4.30;;;;;;;17.99;63.95;102051.56;5012052;28;20076;-67
2023/08/10 07:13:43;;;;;;;6.07;4.03;;;;;;;18.05;62.96;102046.84;5011377;28;20034;-66
2023/08/10 07:16:08;;;;;;;9.00;4.15;;;;;;;18.07;61.89;102038.97;5003868;28;20022;-65
2023/08/10 07:18:34;;;;;;;5.88;3.33;;;;;;;18.08;61.26;102043.50;4995120;28;20477;-67
2023/08/10 07:21:01;;;;;;;6.15;3.40;;;;;;;18.17;61.33;102035.38;5014019;28;20763;-66
2023/08/10 07:23:27;;;;;;;7.68;3.53;;;;;;;18.27;61.43;102047.47;5012031;28;20034;-66
2023/08/10 07:25:55;;;;;;;4.70;3.20;;;;;;;18.41;59.83;102045.00;5000184;28;20065;-67
2023/08/10 07:28:23;;;;;;;5.63;2.78;;;;;;;18.50;58.09;102050.91;4993657;28;20057;-66
2023/08/10 07:30:51;;;;;;;5.60;2.40;;;;;;;18.54;56.24;102052.03;4994893;28;20054;-66
2023/08/10 07:33:17;;;;;;;3.95;2.25;;;;;;;18.61;56.55;102052.63;5007642;28;20036;-66
2023/08/10 07:35:44;;;;;;;5.78;2.22;;;;;;;18.73;56.51;102050.44;5011750;28;20026;-67
2023/08/10 07:38:11;;;;;;;2.17;1.70;;;;;;;18.79;56.38;102054.94;5013606;28;20389;-67
2023/08/10 07:40:36;;;;;;;5.40;2.10;;;;;;;18.83;54.56;102050.47;5005547;28;20034;-67
2023/08/10 07:43:02;;;;;;;3.05;1.77;;;;;;;18.97;53.45;102039.47;5009253;28;20033;-67
2023/08/10 07:45:27;;;;;;;3.45;1.80;;;;;;;19.09;54.45;102047.63;5008361;28;20022;-66
2023/08/10 07:47:52;;;;;;;3.13;1.88;;;;;;;19.16;54.29;102048.22;5007114;28;20029;-67
2023/08/10 07:50:18;;;;;;;3.30;1.40;;;;;;;19.32;59.51;102058.31;5005207;28;20038;-67
2023/08/10 07:52:43;;;;;;;2.88;1.20;;;;;;;19.47;60.36;102057.47;5000983;28;20449;-68
2023/08/10 07:55:10;;;;;;;1.42;1.30;;;;;;;19.58;57.63;102055.50;5012244;28;20034;-70
2023/08/10 07:57:35;;;;;;;3.58;1.20;;;;;;;19.65;54.31;102061.72;5008107;28;20113;-69
2023/08/10 08:00:05;;;;;;;2.88;1.27;;;;;;;19.71;55.09;102060.56;4993564;28;20109;-68
2023/08/10 08:02:31;;;;;;;3.42;1.40;;;;;;;19.86;56.86;102052.06;5008368;28;20160;-69
2023/08/10 08:04:57;;;;;;;3.40;1.60;;;;;;;19.96;55.26;102062.44;5009826;28;20120;-67
2023/08/10 08:07:23;;;;;;;2.67;1.30;;;;;;;19.98;52.68;102053.72;5010910;28;20490;-69
2023/08/10 08:09:48;;;;;;;3.42;1.50;;;;;;;19.98;49.95;102051.75;5004023;28;20068;-69
2023/08/10 08:12:14;;;;;;;2.20;1.40;;;;;;;20.14;53.90;102055.34;5012575;28;20030;-68
2023/08/10 08:14:39;;;;;;;3.58;1.75;;;;;;;20.24;53.64;102046.84;5007137;28;20465;-69
2023/08/10 08:17:04;;;;;;;2.75;1.50;;;;;;;20.22;51.42;102045.44;5011117;28;20034;-66
2023/08/10 08:19:30;;;;;;;1.92;1.27;;;;;;;20.22;50.65;102048.25;5010385;28;20053;-67
2023/08/10 08:21:56;;;;;;;3.70;1.35;;;;;;;20.32;52.52;102053.84;5013035;28;20144;-66
2023/08/10 08:24:21;;;;;;;6.13;1.17;;;;;;;20.40;49.43;102050.44;5007439;28;20458;-67
2023/08/10 08:26:47;;;;;;;3.53;1.50;;;;;;;20.50;51.22;102055.19;4996485;28;20038;-68
2023/08/10 08:29:12;;;;;;;2.78;1.30;;;;;;;20.59;48.40;102042.13;5008523;28;20127;-67
2023/08/10 08:31:37;;;;;;;3.33;1.45;;;;;;;20.66;49.64;102053.94;5009711;28;20036;-68
2023/08/10 08:34:03;;;;;;;1.58;1.20;;;;;;;20.69;51.17;102053.38;5008423;28;20444;-67
2023/08/10 08:36:29;;;;;;;3.92;1.52;;;;;;;20.75;49.38;102048.53;5010332;28;20060;-67
2023/08/10 08:38:54;;;;;;;4.13;1.50;;;;;;;20.84;48.07;102060.88;5008128;28;20117;-67
2023/08/10 08:41:22;;;;;;;3.35;1.60;;;;;;;20.88;50.52;102063.97;5008991;28;20033;-67
2023/08/10 08:43:49;;;;;;;3.55;1.40;;;;;;;20.90;47.66;102056.88;5011387;28;20105;-69
2023/08/10 08:46:16;;;;;;;3.13;1.33;;;;;;;20.91;48.99;102060.56;4998934;28;20058;-68
2023/08/10 08:48:42;;;;;;;4.53;1.58;;;;;;;21.00;50.56;102056.81;5003324;28;20036;-68
2023/08/10 08:51:07;;;;;;;4.00;1.45;;;;;;;21.03;49.42;102052.56;5011254;28;20038;-68
2023/08/10 08:53:33;;;;;;;2.67;1.30;;;;;;;21.11;48.90;102051.94;5010415;28;20096;-68
2023/08/10 08:55:58;;;;;;;2.42;1.33;;;;;;;21.17;48.02;102058.38;5003666;28;20026;-69
2023/08/10 08:58:24;;;;;;;16.10;2.50;;;;;;;21.21;48.82;102049.00;5008654;28;20065;-68
2023/08/10 09:00:53;;;;;;;4.13;1.55;;;;;;;21.16;48.26;102067.97;5011381;28;20087;-70
2023/08/10 09:03:23;;;;;;;2.80;1.45;;;;;;;21.02;47.48;102056.50;5006694;28;20092;-69
2023/08/10 09:05:49;;;;;;;5.05;1.55;;;;;;;21.03;49.19;102049.75;5003651;28;20475;-69
2023/08/10 09:08:16;;;;;;;17.65;2.67;;;;;;;20.95;48.26;102041.91;5008602;28;20030;-69
2023/08/10 09:10:46;;;;;;;79.95;7.45;;;;;;;20.97;48.25;102037.63;5008903;28;20373;-70
2023/08/10 09:13:16;;;;;;;11.50;2.20;;;;;;;20.95;48.88;102034.28;4999497;28;20026;-69
2023/08/10 09:15:42;;;;;;;4.75;1.40;;;;;;;20.95;48.87;102039.09;5010466;28;20503;-70
2023/08/10 09:18:07;;;;;;;7.53;1.77;;;;;;;20.95;49.54;102027.78;5011240;28;20026;-69
2023/08/10 09:20:33;;;;;;;8.50;1.75;;;;;;;20.95;49.54;102034.28;5007443;28;20386;-70
2023/08/10 09:22:59;;;;;;;12.25;2.10;;;;;;;20.94;49.60;102026.09;5006484;28;20121;-70
2023/08/10 09:25:26;;;;;;;9.73;1.80;;;;;;;20.88;48.61;102033.78;5004075;28;20026;-70
2023/08/10 09:27:52;;;;;;;5.50;1.60;;;;;;;20.84;49.05;102035.50;5006512;28;20045;-69
2023/08/10 09:30:19;;;;;;;3.50;1.33;;;;;;;20.73;48.68;102031.91;5007118;28;20204;-71
2023/08/10 09:32:45;;;;;;;1.90;1.30;;;;;;;20.81;49.51;102038.91;5010987;28;20064;-70
2023/08/10 09:35:16;;;;;;;4.70;1.25;;;;;;;20.82;49.02;102032.94;5009244;28;20376;-68
2023/08/10 09:37:42;;;;;;;3.75;1.40;;;;;;;20.76;49.29;102024.84;5010691;28;20033;-70
2023/08/10 09:40:11;;;;;;;3.13;1.50;;;;;;;20.75;48.53;102028.78;5012238;28;20547;-69
2023/08/10 09:42:37;;;;;;;3.90;1.30;;;;;;;20.82;49.63;102026.47;5000496;28;20113;-70
2023/08/10 09:45:10;;;;;;;2.08;1.38;;;;;;;20.87;49.21;102032.09;5011395;28;20026;-70
2023/08/10 09:47:38;;;;;;;4.22;1.70;;;;;;;20.93;49.51;102042.19;5012805;28;20022;-69
2023/08/10 09:50:07;;;;;;;4.32;1.40;;;;;;;20.99;49.24;102035.38;5011547;28;20080;-69
2023/08/10 09:52:36;;;;;;;3.03;1.48;;;;;;;21.05;49.80;102034.19;5012149;28;20132;-69
2023/08/10 09:55:02;;;;;;;1.73;1.20;;;;;;;21.14;49.79;102030.72;5006781;28;20108;-69
2023/08/10 09:57:28;;;;;;;4.05;1.52;;;;;;;21.19;49.35;102028.72;5009696;28;20026;-69
2023/08/10 09:59:54;;;;;;;3.03;1.70;;;;;;;21.23;50.48;102018.50;5004763;28;20097;-69
2023/08/10 10:02:20;;;;;;;4.00;1.52;;;;;;;21.20;49.13;102036.03;4990730;28;20540;-69
2023/08/10 10:04:47;;;;;;;2.80;1.73;;;;;;;21.14;48.57;102031.56;4992463;28;20492;-66
2023/08/10 10:07:13;;;;;;;7.80;2.00;;;;;;;21.07;49.00;102036.72;4992372;28;20031;-66
2023/08/10 10:09:40;;;;;;;2.97;1.63;;;;;;;21.05;49.33;102034.19;5000333;28;20065;-65
2023/08/10 10:12:13;;;;;;;3.50;1.58;;;;;;;21.02;49.58;102037.59;5011492;28;20084;-65
2023/08/10 10:14:47;;;;;;;3.90;1.55;;;;;;;21.06;50.53;102035.03;5009116;28;20025;-67
2023/08/10 10:17:14;;;;;;;8.18;1.98;;;;;;;21.04;50.36;102037.31;4996822;28;20057;-68
2023/08/10 10:19:40;;;;;;;4.68;1.88;;;;;;;21.02;50.74;102036.75;5011354;28;20025;-69
2023/08/10 10:22:06;;;;;;;5.97;1.80;;;;;;;21.08;50.73;102047.72;5007531;28;21361;-69
2023/08/10 10:24:33;;;;;;;4.20;1.63;;;;;;;21.08;51.21;102044.06;5005444;28;20026;-67
2023/08/10 10:26:59;;;;;;;4.82;1.73;;;;;;;21.10;51.31;102044.59;5010536;28;20557;-67
2023/08/10 10:29:36;;;;;;;2.97;1.70;;;;;;;21.13;51.17;102043.16;5010635;28;20556;-68
2023/08/10 10:32:06;;;;;;;2.75;1.60;;;;;;;21.18;51.09;102054.41;5008199;28;20037;-70
2023/08/10 10:34:33;;;;;;;3.80;2.00;;;;;;;21.21;51.13;102043.34;5007735;28;20022;-68
2023/08/10 10:37:07;;;;;;;5.32;1.88;;;;;;;21.22;51.21;102038.53;5001142;28;20029;-68
2023/08/10 10:39:33;;;;;;;2.53;1.85;;;;;;;21.22;51.22;102033.78;4998425;28;20050;-68
2023/08/10 10:41:58;;;;;;;3.38;1.75;;;;;;;21.29;50.66;102034.25;5006083;28;20022;-68
2023/08/10 10:45:00;;;;;;;2.58;1.77;;;;;;;21.26;50.38;102032.03;5009738;28;20389;-68
2023/08/10 10:47:49;;;;;;;4.22;1.52;;;;;;;21.38;51.39;102036.44;5002186;28;20388;-67
2023/08/10 10:50:28;;;;;;;4.85;1.70;;;;;;;21.39;50.69;102036.16;5010238;28;20034;-67
2023/08/10 10:52:58;;;;;;;5.03;1.60;;;;;;;21.48;50.64;102042.00;5005396;28;20033;-67
2023/08/10 10:55:36;;;;;;;4.72;1.80;;;;;;;21.52;50.90;102027.00;5010290;28;21801;-67
2023/08/10 10:58:03;;;;;;;5.38;1.70;;;;;;;21.65;50.14;102022.59;5009817;28;20026;-67
2023/08/10 11:00:29;;;;;;;3.58;1.60;;;;;;;21.73;50.16;102021.97;5004298;28;20452;-67
2023/08/10 11:02:55;;;;;;;5.35;1.95;;;;;;;21.86;50.39;102023.22;5001074;28;20500;-66
2023/08/10 11:05:21;;;;;;;8.57;1.63;;;;;;;21.90;49.81;102017.81;5006349;28;20041;-71
2023/08/10 11:07:48;;;;;;;1.80;1.60;;;;;;;21.91;48.54;102020.31;5007946;28;20088;-67
2023/08/10 11:10:15;;;;;;;3.50;1.67;;;;;;;21.94;49.01;102021.72;5002277;28;20035;-67
2023/08/10 11:12:42;;;;;;;3.13;1.55;;;;;;;21.92;48.56;102024.00;5009836;28;20018;-67
2023/08/10 11:15:10;;;;;;;2.40;1.65;;;;;;;21.91;48.86;102016.66;5005278;28;20437;-67
2023/08/10 11:17:41;;;;;;;4.60;1.70;;;;;;;22.00;50.37;102015.69;4990922;28;20477;-67
2023/08/10 11:20:12;;;;;;;5.63;1.80;;;;;;;22.01;49.15;102010.91;4991065;28;20035;-67
2023/08/10 11:22:42;;;;;;;3.10;2.10;;;;;;;22.08;49.26;102011.34;4991363;28;20492;-67